Wilton, CT (06897)

1:29 PM EST on February 07, 2016 (GMT -0500)
Autumn Hill | | Change Station
CLOSE
Current Station
Personal Weather Station
Location: Weston, CT
Elevation: 344 ft
Nearby Weather Stations

Elev 344 ft 41.22 °N, 73.39 °W | Updated 2 seconds ago

Clear
Clear
46.8 °F
Feels Like 45 °F
N
3.8
Wind Variable Wind from NE
Gusts 6.0 mph

Today
High -- | Low -- °F
--% Chance of Precip.
Yesterday
High -- | Low -- °F
Precip. -- in
Pressure 30.12 in
Visibility 10.0 miles
Clouds Clear
Windchill 45 °F
Dew Point 23 °F
Humidity 39%
Rainfall 0.18 in
Snow Depth Not available.
6:58 AM 5:17 PM
Waning Crescent, 1% visible
METAR KDXR 071753Z 07004KT 10SM CLR 07/M07 A3011 RMK AO2 SLP199 I6000 T00671067 10067 21078 58018
Pressure 30.12 in
Visibility 10.0 miles
Clouds Clear
Windchill 45 °F
Dew Point 23 °F
Humidity 39%
Rainfall 0.18 in
Snow Depth Not available.
6:58 AM 5:17 PM
Waning Crescent, 1% visible
METAR KDXR 071753Z 07004KT 10SM CLR 07/M07 A3011 RMK AO2 SLP199 I6000 T00671067 10067 21078 58018

10-Day Weather Forecast

Almanac

Astronomy

Feb. 07, 2016 Rise Set
Actual Time
Civil Twilight
Nautical Twilight
Astronomical Twilight
Moon
Length of Visible Light
Length of Day
Tomorrow will be .
, % of the Moon is Illuminated

Today's Extremes

State Highs State Lows

Community

WunderPhotos

Upload Photos

1,891,276 photos uploaded!

WunderBlog® & News

Nearby

Air Quality

  Air Quality AQ Index Pollutant
Not available.

Snow Depth

Station Depth Elevation

Earthquake Activity

City Distance Mag. Time & Date
Minimum magnitude displayed is 2.5.

Coastal Water Temperatures

Place Temperature

Stations

Nearby Weather Stations

Station Location Temp. Windchill Dew Point Humidity Wind Precip. Elev Updated Type
                   

Watches & Warnings

There are currently no watches in effect.